Terminal Aerodrome Forecast
Issued by NWS Wakefield, VA

Home | Current Version | Previous Version | Text Only | Print | Product List | Glossary On
Versions: 1 2 3 4 5 6 7 8 9 10 11 12
000
FTUS41 KAKQ 202300
TAFRIC
TAF
KRIC 202340Z 2100/2124 09005KT P6SM BKN250
     FM211000 VRB03KT 5SM BR SCT100 BKN250
     FM211400 35004KT P6SM SCT040=

USA.gov is the U.S. government's official web portal to all federal, state and local government web resources and services.